Time;durP1;ratioP1;P1;durP2;ratioP2;P2;SDS_P1;SDS_P2;PMS_P1;PMS_P2;Temp;Humidity;BMP_temperature;BMP_pressure;BME280_temperature;BME280_humidity;BME280_pressure;Samples;Min_cycle;Max_cycle;Signal;HPM_P1;HPM_P2
2023/06/22 00:01:28;;;;;;;6.10;4.07;;;16.70;99.90;;;;;;6215579;23;20044;-85
2023/06/22 00:03:53;;;;;;;5.30;4.03;;;16.70;99.90;;;;;;6189056;23;20023;-86
2023/06/22 00:06:19;;;;;;;4.40;2.92;;;16.70;99.90;;;;;;6215680;23;20017;-85
2023/06/22 00:08:45;;;;;;;3.05;1.90;;;16.70;99.90;;;;;;6188711;23;20435;-85
2023/06/22 00:11:11;;;;;;;2.15;1.50;;;16.60;99.90;;;;;;6215721;23;20078;-86
2023/06/22 00:13:37;;;;;;;2.65;1.42;;;16.60;99.90;;;;;;6215348;23;20019;-86
2023/06/22 00:16:03;;;;;;;2.58;1.50;;;16.40;99.90;;;;;;6215678;23;20021;-85
2023/06/22 00:18:30;;;;;;;1.20;1.02;;;16.40;99.90;;;;;;6191330;23;20013;-86
2023/06/22 00:20:58;;;;;;;1.95;1.30;;;16.30;99.90;;;;;;6194218;23;20021;-85
2023/06/22 00:23:25;;;;;;;1.42;1.10;;;16.30;99.90;;;;;;6222215;23;20012;-86
2023/06/22 00:25:51;;;;;;;1.30;1.17;;;16.20;99.90;;;;;;6220334;23;20021;-85
2023/06/22 00:28:17;;;;;;;1.50;1.10;;;16.10;99.90;;;;;;6191128;23;20047;-86
2023/06/22 00:30:42;;;;;;;1.40;1.30;;;16.10;99.90;;;;;;6168058;23;20021;-85
2023/06/22 00:33:08;;;;;;;2.03;1.40;;;16.00;99.90;;;;;;6187209;23;20028;-86
2023/06/22 00:35:34;;;;;;;2.05;1.55;;;15.70;99.90;;;;;;6186816;23;20025;-86
2023/06/22 00:38:00;;;;;;;2.17;1.50;;;15.60;99.90;;;;;;6186024;23;20088;-85
2023/06/22 00:40:29;;;;;;;2.15;1.63;;;15.70;99.90;;;;;;6185238;23;20021;-87
2023/06/22 00:42:55;;;;;;;1.98;1.55;;;15.70;99.90;;;;;;6184873;23;20017;-86
2023/06/22 00:45:23;;;;;;;2.90;2.08;;;15.70;99.90;;;;;;6185430;23;20017;-85
2023/06/22 00:47:53;;;;;;;1.90;1.60;;;15.70;99.90;;;;;;6158851;23;20028;-85
2023/06/22 00:50:21;;;;;;;4.15;2.38;;;15.70;99.90;;;;;;6158180;23;20033;-85
2023/06/22 00:52:56;;;;;;;2.88;2.20;;;15.60;99.90;;;;;;6158484;23;20452;-85
2023/06/22 00:55:23;;;;;;;3.65;2.47;;;15.70;99.90;;;;;;6185014;23;20057;-85
2023/06/22 00:57:49;;;;;;;4.32;3.10;;;15.60;99.90;;;;;;6158498;23;20029;-85
2023/06/22 01:00:17;;;;;;;4.07;2.58;;;15.60;99.90;;;;;;6133712;23;20088;-85
2023/06/22 01:02:46;;;;;;;3.53;2.67;;;15.50;99.90;;;;;;6158633;23;20021;-86
2023/06/22 01:05:16;;;;;;;4.13;3.13;;;15.40;99.90;;;;;;6158420;23;20056;-85
2023/06/22 01:07:52;;;;;;;3.47;2.65;;;15.40;99.90;;;;;;6184687;23;20072;-86
2023/06/22 01:10:27;;;;;;;3.17;2.55;;;15.40;99.90;;;;;;6158182;23;20021;-85
2023/06/22 01:12:58;;;;;;;4.45;2.75;;;15.40;99.90;;;;;;6158097;23;20032;-86
2023/06/22 01:15:45;;;;;;;4.72;3.58;;;15.50;99.90;;;;;;6185122;23;20025;-85
2023/06/22 01:18:13;;;;;;;3.22;2.92;;;15.40;99.90;;;;;;6185455;23;20025;-85
2023/06/22 01:20:39;;;;;;;4.65;3.13;;;15.50;99.90;;;;;;6185069;23;20036;-85
2023/06/22 01:23:46;;;;;;;3.92;2.90;;;15.50;99.90;;;;;;6185696;23;20017;-86
2023/06/22 01:26:34;;;;;;;3.78;3.00;;;15.50;99.90;;;;;;6041602;23;20215;-86
2023/06/22 01:29:03;;;;;;;5.47;3.65;;;15.50;99.90;;;;;;6042067;23;20055;-85
2023/06/22 01:31:31;;;;;;;4.43;3.22;;;15.50;99.90;;;;;;6071306;23;20070;-85
2023/06/22 01:34:00;;;;;;;7.05;4.03;;;15.50;99.90;;;;;;6071318;23;20065;-85
2023/06/22 01:36:28;;;;;;;6.05;4.10;;;15.50;99.90;;;;;;6071309;23;20033;-85
2023/06/22 01:38:54;;;;;;;5.97;4.70;;;15.50;99.90;;;;;;6071443;23;20026;-85
2023/06/22 01:41:22;;;;;;;5.45;4.30;;;15.50;99.90;;;;;;6095050;23;20373;-86
2023/06/22 01:43:48;;;;;;;5.63;3.50;;;15.50;99.90;;;;;;6094945;23;20022;-85
2023/06/22 01:46:15;;;;;;;4.75;3.28;;;15.60;99.90;;;;;;6071228;23;20022;-86
2023/06/22 01:48:41;;;;;;;4.97;3.60;;;15.60;99.90;;;;;;6071243;23;20105;-86
2023/06/22 01:51:07;;;;;;;4.68;3.47;;;15.60;99.90;;;;;;6095178;23;20026;-86
2023/06/22 01:53:33;;;;;;;6.00;3.70;;;15.60;99.90;;;;;;6071300;23;20018;-85
2023/06/22 01:55:58;;;;;;;5.32;3.80;;;15.60;99.90;;;;;;6071193;23;20106;-86
2023/06/22 01:58:29;;;;;;;6.47;4.50;;;15.60;99.90;;;;;;6070816;23;20113;-85
2023/06/22 02:01:12;;;;;;;6.68;4.28;;;15.50;99.90;;;;;;6095319;23;20025;-86
2023/06/22 02:03:56;;;;;;;6.65;4.60;;;15.50;99.90;;;;;;6181882;23;20055;-86
2023/06/22 02:06:29;;;;;;;6.60;4.45;;;15.50;99.90;;;;;;6189590;23;20048;-86
2023/06/22 02:09:00;;;;;;;6.05;4.00;;;15.40;99.90;;;;;;6216626;23;20397;-85
2023/06/22 02:11:28;;;;;;;6.03;4.20;;;15.30;99.90;;;;;;6216142;23;20106;-86
2023/06/22 02:13:57;;;;;;;4.57;3.35;;;15.30;99.90;;;;;;6189426;23;20071;-85
2023/06/22 02:16:23;;;;;;;4.15;3.55;;;15.30;99.90;;;;;;6216469;23;20012;-87
2023/06/22 02:18:50;;;;;;;4.97;2.67;;;15.20;99.90;;;;;;6216104;23;20056;-85
2023/06/22 02:21:19;;;;;;;4.22;2.78;;;15.30;99.90;;;;;;6189452;23;20463;-86
2023/06/22 02:23:45;;;;;;;6.38;4.80;;;15.30;99.90;;;;;;6190102;23;20462;-86
2023/06/22 02:26:10;;;;;;;5.78;3.92;;;15.30;99.90;;;;;;6189228;23;20021;-86
2023/06/22 02:28:36;;;;;;;5.65;3.95;;;15.30;99.90;;;;;;6189479;23;20019;-86
2023/06/22 02:31:02;;;;;;;5.40;3.20;;;15.30;99.90;;;;;;6215707;23;20451;-86
2023/06/22 02:33:27;;;;;;;5.03;3.45;;;15.30;99.90;;;;;;6164622;23;20075;-86
2023/06/22 02:35:53;;;;;;;6.68;3.70;;;15.30;99.90;;;;;;6189410;23;20032;-86
2023/06/22 02:38:19;;;;;;;5.75;4.30;;;15.30;99.90;;;;;;6215763;23;20126;-86
2023/06/22 02:40:46;;;;;;;6.32;4.88;;;15.30;99.90;;;;;;6188640;23;20048;-86
2023/06/22 02:43:12;;;;;;;6.55;4.82;;;15.30;99.90;;;;;;6216307;23;20025;-86
2023/06/22 02:45:37;;;;;;;6.20;4.38;;;15.30;99.90;;;;;;6216157;23;20020;-86
2023/06/22 02:48:03;;;;;;;5.10;4.05;;;15.30;99.90;;;;;;6189374;23;20028;-86
2023/06/22 02:50:29;;;;;;;8.70;6.15;;;15.30;99.90;;;;;;6215916;23;20494;-86
2023/06/22 02:52:55;;;;;;;11.00;7.07;;;15.30;99.90;;;;;;6189352;23;20051;-86
2023/06/22 02:55:21;;;;;;;7.43;4.65;;;15.30;99.90;;;;;;6189035;23;20067;-88
2023/06/22 02:57:47;;;;;;;6.75;4.00;;;15.30;99.90;;;;;;6189303;23;20017;-86
2023/06/22 03:00:17;;;;;;;5.95;3.42;;;15.40;99.90;;;;;;6189145;23;20451;-87
2023/06/22 03:02:44;;;;;;;5.50;3.65;;;15.40;99.90;;;;;;6216403;23;20071;-86
2023/06/22 03:05:13;;;;;;;4.35;2.97;;;15.40;99.90;;;;;;6188972;23;20017;-85
2023/06/22 03:07:43;;;;;;;4.90;2.58;;;15.30;99.90;;;;;;6189317;23;20021;-86
2023/06/22 03:10:12;;;;;;;3.33;2.20;;;15.30;99.90;;;;;;6216060;23;20035;-85
2023/06/22 03:12:39;;;;;;;2.80;1.75;;;15.20;99.90;;;;;;6188871;23;20044;-87
2023/06/22 03:15:10;;;;;;;2.78;1.95;;;15.10;99.90;;;;;;6215892;23;20347;-86
2023/06/22 03:17:38;;;;;;;4.15;2.97;;;15.00;99.90;;;;;;6188946;23;20025;-86
2023/06/22 03:20:10;;;;;;;2.97;2.55;;;14.90;99.90;;;;;;6215456;23;20028;-87
2023/06/22 03:22:37;;;;;;;4.45;3.38;;;14.90;99.90;;;;;;6216126;23;20020;-85
2023/06/22 03:25:03;;;;;;;3.92;3.53;;;14.80;99.90;;;;;;6189100;23;20021;-85
2023/06/22 03:27:28;;;;;;;3.33;2.40;;;14.80;99.90;;;;;;6215581;23;20111;-85
2023/06/22 03:29:54;;;;;;;3.50;1.90;;;14.80;99.90;;;;;;6188329;23;20451;-86
2023/06/22 03:32:21;;;;;;;4.10;3.38;;;14.80;99.90;;;;;;6188801;23;20024;-85
2023/06/22 03:34:47;;;;;;;6.80;5.35;;;14.80;99.90;;;;;;6188726;23;20031;-86
2023/06/22 03:37:14;;;;;;;5.05;4.05;;;14.70;99.90;;;;;;6163860;23;20025;-86
2023/06/22 03:39:41;;;;;;;4.28;2.90;;;14.80;99.90;;;;;;6189512;23;20132;-85
2023/06/22 03:42:07;;;;;;;4.13;3.20;;;14.80;99.90;;;;;;6188315;23;20021;-86
2023/06/22 03:44:33;;;;;;;4.20;2.88;;;14.80;99.90;;;;;;6188681;23;20025;-87
2023/06/22 03:46:58;;;;;;;3.53;3.22;;;14.80;99.90;;;;;;6215326;23;20043;-85
2023/06/22 03:49:24;;;;;;;6.65;3.78;;;14.90;99.90;;;;;;6188674;23;20058;-85
2023/06/22 03:51:50;;;;;;;4.68;3.67;;;14.90;99.90;;;;;;6163484;23;20027;-86
2023/06/22 03:54:15;;;;;;;4.72;3.15;;;14.90;99.90;;;;;;6215334;23;20428;-87
2023/06/22 03:56:41;;;;;;;4.25;3.40;;;14.90;99.90;;;;;;6215581;23;20052;-85
2023/06/22 03:59:07;;;;;;;4.75;3.53;;;15.00;99.90;;;;;;6215100;23;20059;-86
2023/06/22 04:01:32;;;;;;;6.00;3.95;;;15.00;99.90;;;;;;6188533;23;20055;-85
2023/06/22 04:03:58;;;;;;;4.50;3.33;;;15.00;99.90;;;;;;6215810;23;20055;-85
2023/06/22 04:06:24;;;;;;;4.15;3.50;;;15.10;99.90;;;;;;6188497;23;20524;-86
2023/06/22 04:08:50;;;;;;;6.55;4.80;;;15.00;99.90;;;;;;6188771;23;20043;-86
2023/06/22 04:11:19;;;;;;;5.97;4.35;;;15.10;99.90;;;;;;6188476;23;20462;-85
2023/06/22 04:13:44;;;;;;;6.03;4.38;;;15.00;99.90;;;;;;6215592;23;20100;-85
2023/06/22 04:16:10;;;;;;;5.43;4.32;;;15.10;99.90;;;;;;6215518;23;20366;-86
2023/06/22 04:18:36;;;;;;;4.50;4.00;;;15.10;99.90;;;;;;6215461;23;20092;-87
2023/06/22 04:21:02;;;;;;;3.97;3.10;;;15.10;99.90;;;;;;6188329;23;20017;-85
2023/06/22 04:23:28;;;;;;;5.07;3.80;;;15.00;99.90;;;;;;6214841;23;20491;-85
2023/06/22 04:25:56;;;;;;;4.97;4.03;;;15.30;99.90;;;;;;6188800;23;20062;-85
2023/06/22 04:28:22;;;;;;;7.63;4.25;;;15.00;99.90;;;;;;6188156;23;20024;-86
2023/06/22 04:30:47;;;;;;;7.38;4.85;;;15.00;99.90;;;;;;6214855;23;20095;-85
2023/06/22 04:33:17;;;;;;;6.60;4.88;;;15.00;99.90;;;;;;6215189;23;20024;-85
2023/06/22 04:35:45;;;;;;;7.15;5.78;;;14.90;99.90;;;;;;6188432;23;20025;-86
2023/06/22 04:38:15;;;;;;;8.05;5.47;;;14.90;99.90;;;;;;6214991;23;20519;-86
2023/06/22 04:40:41;;;;;;;8.60;5.97;;;14.90;99.90;;;;;;6215055;23;20462;-87
2023/06/22 04:43:07;;;;;;;9.20;5.82;;;15.00;99.90;;;;;;6188251;23;20013;-86
2023/06/22 04:45:33;;;;;;;8.40;5.97;;;15.10;99.90;;;;;;6214756;23;20103;-85
2023/06/22 04:47:59;;;;;;;13.80;9.20;;;15.20;99.90;;;;;;6215038;23;20020;-85
2023/06/22 04:50:25;;;;;;;9.15;7.28;;;15.40;99.90;;;;;;6188764;23;20384;-86
2023/06/22 04:52:51;;;;;;;9.23;6.60;;;15.50;99.90;;;;;;6188571;23;20020;-85
2023/06/22 04:55:19;;;;;;;8.52;6.47;;;15.60;99.90;;;;;;6214978;23;20012;-86
2023/06/22 04:57:48;;;;;;;12.00;8.90;;;15.70;99.90;;;;;;6188631;23;20021;-86
2023/06/22 05:00:23;;;;;;;14.98;11.18;;;15.70;99.90;;;;;;6214565;23;20028;-88
2023/06/22 05:02:49;;;;;;;10.40;7.93;;;15.70;99.90;;;;;;6188541;23;20020;-86
2023/06/22 05:05:16;;;;;;;10.10;8.60;;;15.80;99.90;;;;;;6216491;23;20087;-86
2023/06/22 05:07:48;;;;;;;10.82;8.40;;;15.80;99.90;;;;;;6217304;23;20095;-86
2023/06/22 05:10:14;;;;;;;13.95;9.02;;;15.90;99.90;;;;;;6217644;23;20008;-86
2023/06/22 05:12:41;;;;;;;15.43;9.73;;;16.00;99.90;;;;;;6217380;23;20024;-85
2023/06/22 05:15:08;;;;;;;14.55;9.88;;;16.00;99.90;;;;;;6216809;23;20024;-86
2023/06/22 05:17:34;;;;;;;13.52;8.50;;;16.10;99.90;;;;;;6217200;23;20027;-87
2023/06/22 05:20:00;;;;;;;10.20;7.57;;;16.20;99.90;;;;;;6190499;23;20020;-85
2023/06/22 05:22:26;;;;;;;10.13;7.38;;;16.40;99.90;;;;;;6189835;23;20027;-87
2023/06/22 05:24:51;;;;;;;14.52;9.70;;;16.50;99.90;;;;;;6190252;23;20031;-86
2023/06/22 05:27:17;;;;;;;17.88;12.52;;;16.60;99.90;;;;;;6217200;23;20021;-86
2023/06/22 05:29:43;;;;;;;14.98;11.60;;;16.70;99.90;;;;;;6189783;23;20052;-87
2023/06/22 05:32:09;;;;;;;13.70;8.90;;;16.80;99.90;;;;;;6217162;23;20028;-86
2023/06/22 05:34:35;;;;;;;11.23;8.25;;;17.00;99.90;;;;;;6190059;23;20047;-86
2023/06/22 05:37:00;;;;;;;24.17;17.45;;;17.10;99.90;;;;;;6189995;23;20021;-86
2023/06/22 05:39:26;;;;;;;23.83;14.98;;;17.30;99.90;;;;;;6189884;23;20035;-86
2023/06/22 05:41:52;;;;;;;26.63;18.75;;;17.40;99.90;;;;;;6216760;23;20088;-87
2023/06/22 05:44:18;;;;;;;17.25;12.25;;;17.60;99.90;;;;;;6216999;23;20021;-87
2023/06/22 05:46:46;;;;;;;12.95;9.40;;;17.80;99.90;;;;;;6217173;23;20063;-87
2023/06/22 05:49:12;;;;;;;16.77;10.27;;;17.90;99.90;;;;;;6216971;23;20052;-88
2023/06/22 05:51:39;;;;;;;15.88;10.48;;;18.10;99.90;;;;;;6189848;23;20479;-87
2023/06/22 05:54:04;;;;;;;20.58;14.18;;;18.20;99.90;;;;;;6216868;23;20017;-87
2023/06/22 05:56:30;;;;;;;16.50;12.68;;;18.30;99.90;;;;;;6216572;23;20027;-85
2023/06/22 05:58:56;;;;;;;16.88;11.25;;;18.50;99.90;;;;;;6189743;23;20032;-85
2023/06/22 06:01:22;;;;;;;16.17;10.73;;;18.60;99.90;;;;;;6216651;23;20024;-85
2023/06/22 06:03:49;;;;;;;28.92;21.33;;;18.70;99.90;;;;;;6215829;23;20103;-85
2023/06/22 06:06:16;;;;;;;25.83;18.08;;;18.70;99.90;;;;;;6216730;23;20071;-85
2023/06/22 06:08:42;;;;;;;30.38;22.23;;;18.80;99.90;;;;;;6189858;23;20024;-86
2023/06/22 06:11:07;;;;;;;18.38;13.32;;;18.90;99.90;;;;;;6216733;23;20025;-85
2023/06/22 06:13:33;;;;;;;20.25;15.65;;;19.00;99.90;;;;;;6217126;23;20017;-87
2023/06/22 06:15:59;;;;;;;15.57;11.07;;;19.10;99.90;;;;;;6192675;23;20033;-86
2023/06/22 06:18:25;;;;;;;12.32;9.15;;;19.30;99.90;;;;;;6198395;23;20332;-86
2023/06/22 06:20:51;;;;;;;14.75;11.75;;;19.50;99.90;;;;;;6197875;23;20035;-88
2023/06/22 06:23:16;;;;;;;19.65;14.32;;;19.60;99.90;;;;;;6223268;23;20009;-85
2023/06/22 06:25:42;;;;;;;16.02;12.18;;;19.70;99.90;;;;;;6222213;23;20025;-87
2023/06/22 06:28:08;;;;;;;14.07;10.88;;;19.80;99.90;;;;;;6193752;23;20032;-86
2023/06/22 06:30:34;;;;;;;18.08;13.23;;;20.00;99.90;;;;;;6221021;23;20347;-88
2023/06/22 06:33:00;;;;;;;15.82;9.48;;;20.10;99.90;;;;;;6220224;23;20023;-87
2023/06/22 06:35:26;;;;;;;10.45;7.72;;;20.20;99.90;;;;;;6193077;23;20044;-87
2023/06/22 06:37:52;;;;;;;13.40;9.48;;;20.50;99.90;;;;;;6191151;23;20021;-90
2023/06/22 06:40:18;;;;;;;18.35;12.05;;;20.50;99.90;;;;;;6190201;23;20029;-87
2023/06/22 06:42:45;;;;;;;16.92;12.48;;;20.60;99.90;;;;;;6164857;23;20031;-85
2023/06/22 06:45:13;;;;;;;16.27;11.32;;;20.70;99.90;;;;;;6216701;23;20351;-86
2023/06/22 06:47:39;;;;;;;15.48;10.60;;;20.70;99.90;;;;;;6165063;23;20024;-86
2023/06/22 06:50:06;;;;;;;13.73;11.00;;;20.80;99.90;;;;;;6189282;23;20060;-86
2023/06/22 06:52:32;;;;;;;14.52;10.90;;;21.00;99.90;;;;;;6216216;23;20025;-85
2023/06/22 06:54:58;;;;;;;16.23;11.95;;;21.10;99.90;;;;;;6189312;23;20067;-87
2023/06/22 06:57:28;;;;;;;12.68;8.77;;;21.30;99.90;;;;;;6189644;23;20392;-88
2023/06/22 06:59:57;;;;;;;11.32;8.18;;;21.40;99.90;;;;;;6164056;23;20025;-86
2023/06/22 07:02:24;;;;;;;10.35;7.32;;;21.50;99.90;;;;;;6164324;23;20015;-85
2023/06/22 07:04:50;;;;;;;8.75;5.88;;;21.50;99.90;;;;;;6216046;23;20032;-85
2023/06/22 07:07:16;;;;;;;12.57;8.60;;;21.50;99.90;;;;;;6216157;23;20013;-83
2023/06/22 07:09:41;;;;;;;10.90;8.18;;;21.60;99.90;;;;;;6216313;23;20048;-84
2023/06/22 07:12:07;;;;;;;11.48;7.35;;;21.70;99.90;;;;;;6188987;23;20078;-86
2023/06/22 07:14:33;;;;;;;9.32;6.93;;;21.80;99.90;;;;;;6188880;23;20032;-88
2023/06/22 07:16:59;;;;;;;8.18;5.20;;;21.90;99.90;;;;;;6215428;23;20343;-86
2023/06/22 07:19:26;;;;;;;9.65;6.05;;;22.00;99.90;;;;;;6215753;23;20021;-87
2023/06/22 07:21:53;;;;;;;8.73;6.55;;;22.10;99.90;;;;;;6216876;23;20043;-85
2023/06/22 07:24:20;;;;;;;10.35;6.07;;;22.10;99.90;;;;;;6219442;23;20013;-87
2023/06/22 07:26:50;;;;;;;6.72;4.00;;;22.30;99.90;;;;;;6216615;23;20020;-85
2023/06/22 07:29:20;;;;;;;5.90;3.55;;;22.30;99.90;;;;;;6216307;23;20391;-85
2023/06/22 07:31:47;;;;;;;8.45;4.00;;;22.40;99.90;;;;;;6216944;23;20039;-86
2023/06/22 07:34:13;;;;;;;4.43;3.47;;;22.50;99.90;;;;;;6189827;23;20020;-86
2023/06/22 07:36:39;;;;;;;4.03;3.15;;;22.60;99.90;;;;;;6216850;23;20024;-85
2023/06/22 07:39:05;;;;;;;5.05;3.58;;;22.70;99.90;;;;;;6216537;23;20032;-85
2023/06/22 07:41:31;;;;;;;5.93;4.57;;;22.70;99.90;;;;;;6189057;23;20348;-84
2023/06/22 07:43:56;;;;;;;5.43;3.75;;;22.70;99.90;;;;;;6215638;23;20071;-85
2023/06/22 07:46:23;;;;;;;3.53;2.50;;;22.80;99.90;;;;;;6189228;23;20028;-86
2023/06/22 07:48:49;;;;;;;4.05;2.30;;;23.00;99.90;;;;;;6215874;23;20351;-88
2023/06/22 07:51:14;;;;;;;4.32;2.03;;;23.10;99.90;;;;;;6190260;23;20107;-85
2023/06/22 07:53:42;;;;;;;5.72;2.45;;;23.10;99.90;;;;;;6215847;23;20020;-85
2023/06/22 07:56:10;;;;;;;6.20;2.50;;;23.30;99.90;;;;;;6215586;23;20070;-88
2023/06/22 07:58:36;;;;;;;3.47;1.83;;;23.30;99.90;;;;;;6188747;23;20438;-85
2023/06/22 08:01:02;;;;;;;4.28;1.98;;;23.30;99.90;;;;;;6215331;23;20028;-87
2023/06/22 08:03:28;;;;;;;3.55;2.10;;;23.20;99.90;;;;;;6188742;23;20403;-85
2023/06/22 08:05:53;;;;;;;3.60;2.17;;;23.30;99.90;;;;;;6163960;23;20059;-85
2023/06/22 08:08:19;;;;;;;4.15;2.17;;;23.30;99.90;;;;;;6188777;23;20567;-86
2023/06/22 08:10:45;;;;;;;4.43;2.10;;;23.40;99.90;;;;;;6215915;23;20031;-85
2023/06/22 08:13:11;;;;;;;4.40;1.60;;;23.60;99.90;;;;;;6188934;23;20016;-87
2023/06/22 08:15:36;;;;;;;2.85;1.25;;;23.60;99.90;;;;;;6215375;23;20059;-86
2023/06/22 08:18:02;;;;;;;2.83;1.92;;;23.80;99.90;;;;;;6215155;23;20351;-86
2023/06/22 08:20:28;;;;;;;3.22;1.45;;;23.60;99.90;;;;;;6215475;23;20029;-86
2023/06/22 08:22:55;;;;;;;2.13;1.38;;;23.70;99.90;;;;;;6215636;23;20087;-86
2023/06/22 08:25:21;;;;;;;2.67;1.20;;;23.60;99.90;;;;;;6215679;23;20079;-85
2023/06/22 08:27:48;;;;;;;2.95;1.15;;;23.90;99.90;;;;;;6215172;23;20024;-86
2023/06/22 08:30:14;;;;;;;2.67;1.20;;;24.00;99.90;;;;;;6214901;23;20499;-86
2023/06/22 08:32:40;;;;;;;3.75;1.40;;;24.10;99.90;;;;;;6215586;23;20021;-85
2023/06/22 08:35:08;;;;;;;4.00;1.60;;;24.10;99.90;;;;;;6215338;23;20104;-86
2023/06/22 08:37:35;;;;;;;1.80;1.17;;;24.10;99.90;;;;;;6215125;23;20151;-85
2023/06/22 08:40:04;;;;;;;3.40;1.48;;;24.30;99.90;;;;;;6214985;23;20568;-86
2023/06/22 08:42:30;;;;;;;2.97;1.90;;;24.40;99.90;;;;;;6188092;23;20033;-85
2023/06/22 08:44:56;;;;;;;4.35;1.80;;;24.60;99.90;;;;;;6215339;23;20021;-85
2023/06/22 08:47:22;;;;;;;2.60;1.45;;;24.60;99.90;;;;;;6215598;23;20021;-85
2023/06/22 08:49:48;;;;;;;3.65;1.75;;;24.80;99.90;;;;;;6215218;23;20379;-85
2023/06/22 08:52:15;;;;;;;3.28;1.67;;;24.90;99.90;;;;;;6190145;23;20028;-87
2023/06/22 08:54:40;;;;;;;5.85;2.28;;;24.80;99.90;;;;;;6215894;23;20343;-86
2023/06/22 08:57:06;;;;;;;2.60;1.40;;;24.90;99.90;;;;;;6215469;23;20021;-88
2023/06/22 08:59:32;;;;;;;3.60;1.95;;;25.10;99.90;;;;;;6214820;23;20021;-85
2023/06/22 09:01:58;;;;;;;2.35;1.13;;;25.10;99.90;;;;;;6214878;23;20059;-86
2023/06/22 09:04:24;;;;;;;3.08;1.67;;;25.30;99.90;;;;;;6188522;23;20025;-86
2023/06/22 09:06:52;;;;;;;3.28;1.75;;;25.50;99.90;;;;;;6188732;23;20092;-86
2023/06/22 09:09:18;;;;;;;3.72;1.98;;;25.50;99.90;;;;;;6214682;23;20163;-86
2023/06/22 09:11:44;;;;;;;3.53;1.85;;;25.70;99.90;;;;;;6188664;23;20016;-86
2023/06/22 09:14:11;;;;;;;2.53;1.63;;;25.80;99.90;;;;;;6214740;23;20364;-85
2023/06/22 09:16:37;;;;;;;3.20;1.58;;;25.70;99.90;;;;;;6214946;23;20099;-85
2023/06/22 09:19:02;;;;;;;4.32;2.15;;;25.90;99.90;;;;;;6214900;23;20036;-85
2023/06/22 09:21:28;;;;;;;4.47;2.75;;;25.80;99.90;;;;;;6215033;23;20028;-86
2023/06/22 09:23:54;;;;;;;4.90;2.38;;;25.80;99.90;;;;;;6215472;23;20329;-86
2023/06/22 09:26:21;;;;;;;4.13;1.92;;;25.60;99.90;;;;;;6215225;23;20099;-86
2023/06/22 09:28:47;;;;;;;4.55;2.53;;;25.50;99.90;;;;;;6214878;23;20021;-85
2023/06/22 09:31:13;;;;;;;5.40;2.40;;;25.60;99.90;;;;;;6214904;23;20027;-85
2023/06/22 09:33:40;;;;;;;2.33;1.35;;;25.60;99.90;;;;;;6215038;23;20031;-87
2023/06/22 09:36:09;;;;;;;4.93;2.00;;;25.90;99.90;;;;;;6187859;23;20031;-88
2023/06/22 09:38:36;;;;;;;5.07;2.67;;;26.00;99.90;;;;;;6214980;23;20079;-87
2023/06/22 09:41:02;;;;;;;5.10;2.58;;;26.00;99.90;;;;;;6214757;23;20031;-86
2023/06/22 09:43:28;;;;;;;6.78;2.50;;;26.10;99.90;;;;;;6214976;23;20012;-87
2023/06/22 09:45:54;;;;;;;4.60;2.78;;;26.10;99.90;;;;;;6187692;23;20476;-85
2023/06/22 09:48:19;;;;;;;4.00;2.30;;;26.00;99.90;;;;;;6214467;23;20025;-85
2023/06/22 09:50:45;;;;;;;3.75;1.88;;;26.10;99.90;;;;;;6189103;23;20316;-85
2023/06/22 09:53:11;;;;;;;5.07;3.22;;;26.40;99.90;;;;;;6216975;23;20025;-87
2023/06/22 09:55:36;;;;;;;4.72;3.05;;;26.30;99.90;;;;;;6189786;23;20078;-86
2023/06/22 09:58:02;;;;;;;4.63;2.42;;;26.20;99.90;;;;;;6164741;23;20355;-86
2023/06/22 10:00:28;;;;;;;2.78;1.77;;;26.40;99.90;;;;;;6189782;23;20056;-85
2023/06/22 10:02:55;;;;;;;3.00;2.25;;;26.60;99.90;;;;;;6164935;23;20028;-85
2023/06/22 10:05:21;;;;;;;4.53;2.97;;;26.70;99.90;;;;;;6189491;23;20028;-86
2023/06/22 10:07:47;;;;;;;4.75;2.70;;;26.60;99.90;;;;;;6189797;23;20021;-86
2023/06/22 10:10:13;;;;;;;3.97;1.48;;;26.60;99.90;;;;;;6189783;23;20020;-85
2023/06/22 10:12:47;;;;;;;4.60;3.17;;;26.80;99.90;;;;;;6189719;23;20031;-86
2023/06/22 10:15:13;;;;;;;3.65;2.25;;;26.70;99.80;;;;;;6189977;23;20016;-86
2023/06/22 10:17:39;;;;;;;5.65;3.63;;;26.80;99.90;;;;;;6218623;23;20482;-87
2023/06/22 10:20:11;;;;;;;6.18;3.28;;;26.80;99.90;;;;;;6190071;23;20024;-88
2023/06/22 10:22:42;;;;;;;4.15;2.40;;;26.90;99.70;;;;;;6190164;23;20048;-87
2023/06/22 10:25:08;;;;;;;6.32;3.20;;;26.90;99.90;;;;;;6189781;23;20016;-87
2023/06/22 10:27:34;;;;;;;3.58;2.33;;;26.90;99.90;;;;;;6217597;23;20021;-89
2023/06/22 10:30:00;;;;;;;5.43;3.08;;;26.80;99.50;;;;;;6190991;23;20020;-87
2023/06/22 10:32:25;;;;;;;3.50;2.03;;;26.40;99.20;;;;;;6217270;23;20021;-88
2023/06/22 10:34:51;;;;;;;5.95;2.30;;;26.30;99.90;;;;;;6216415;23;20316;-86
2023/06/22 10:37:17;;;;;;;3.70;2.40;;;26.40;99.80;;;;;;6193298;23;20483;-87
2023/06/22 10:39:43;;;;;;;4.47;2.75;;;26.80;99.70;;;;;;6220606;23;20064;-87
2023/06/22 10:42:08;;;;;;;4.63;1.80;;;26.50;99.90;;;;;;6191746;23;20029;-90
2023/06/22 10:44:34;;;;;;;5.15;2.55;;;26.80;99.90;;;;;;6192995;23;20024;-90
2023/06/22 10:47:00;;;;;;;5.35;2.83;;;26.60;99.80;;;;;;6218748;23;20447;-88
2023/06/22 10:49:25;;;;;;;5.28;2.63;;;26.60;99.90;;;;;;6193323;23;20028;-87
2023/06/22 10:51:51;;;;;;;5.10;1.80;;;26.70;99.90;;;;;;6217887;23;20012;-88
2023/06/22 10:54:19;;;;;;;6.13;3.35;;;27.10;99.90;;;;;;6217769;23;20321;-87
2023/06/22 10:56:45;;;;;;;3.08;2.13;;;27.10;99.70;;;;;;6217050;23;20017;-85
2023/06/22 10:59:13;;;;;;;5.60;3.13;;;27.30;99.90;;;;;;6190698;23;20124;-88
2023/06/22 11:01:39;;;;;;;4.30;2.72;;;26.80;99.50;;;;;;6189609;23;20416;-88
2023/06/22 11:04:05;;;;;;;3.50;2.20;;;26.60;99.90;;;;;;6190412;23;20035;-90
2023/06/22 11:06:30;;;;;;;3.95;2.78;;;26.30;99.90;;;;;;6216545;23;20020;-84
2023/06/22 11:08:57;;;;;;;4.15;2.50;;;26.20;99.90;;;;;;6216826;23;20024;-86
2023/06/22 11:11:23;;;;;;;4.45;2.95;;;26.50;99.90;;;;;;6191389;23;20017;-87
2023/06/22 11:13:49;;;;;;;5.70;1.90;;;26.40;99.80;;;;;;6217930;23;20038;-87
2023/06/22 11:16:15;;;;;;;4.07;1.80;;;26.50;99.90;;;;;;6217279;23;20025;-85
2023/06/22 11:18:41;;;;;;;3.20;1.52;;;26.70;99.90;;;;;;6217663;23;20016;-87
2023/06/22 11:21:07;;;;;;;5.10;1.80;;;27.20;99.90;;;;;;6218137;23;20031;-88
2023/06/22 11:23:35;;;;;;;2.17;1.50;;;27.10;99.90;;;;;;6190271;23;20013;-89
2023/06/22 11:26:00;;;;;;;5.20;2.15;;;27.10;99.90;;;;;;6190834;23;20025;-87
2023/06/22 11:28:29;;;;;;;3.97;2.03;;;27.30;99.70;;;;;;6215486;23;20028;-86
2023/06/22 11:30:55;;;;;;;3.45;1.33;;;27.40;99.30;;;;;;6216098;23;20017;-85
2023/06/22 11:33:20;;;;;;;4.45;2.03;;;27.40;99.70;;;;;;6188626;23;20051;-87
2023/06/22 11:35:46;;;;;;;4.47;1.80;;;27.30;99.00;;;;;;6215387;23;20016;-86
2023/06/22 11:38:12;;;;;;;2.85;1.70;;;27.20;99.10;;;;;;6188872;23;20020;-87
2023/06/22 11:40:37;;;;;;;1.50;0.93;;;27.30;99.90;;;;;;6188952;23;20024;-85
2023/06/22 11:43:03;;;;;;;2.83;1.38;;;27.50;99.90;;;;;;6164177;23;20024;-86
2023/06/22 11:45:29;;;;;;;1.98;1.10;;;27.00;98.80;;;;;;6216123;23;20048;-87
2023/06/22 11:47:54;;;;;;;3.20;1.80;;;27.00;99.90;;;;;;6188831;23;20120;-87
2023/06/22 11:50:20;;;;;;;12.38;7.70;;;26.40;99.50;;;;;;6189870;23;20324;-89
2023/06/22 11:52:46;;;;;;;2.35;1.33;;;26.30;99.40;;;;;;6191427;23;20468;-91
2023/06/22 11:55:12;;;;;;;1.98;1.13;;;26.40;99.90;;;;;;6217711;23;20028;-90
2023/06/22 11:58:00;;;;;;;2.83;1.45;;;26.70;99.90;;;;;;6216752;23;20024;-92
2023/06/22 12:00:26;;;;;;;2.50;1.50;;;26.60;99.70;;;;;;6189395;23;20111;-91
2023/06/22 12:02:52;;;;;;;3.40;1.70;;;26.70;99.70;;;;;;6189362;23;20404;-90
2023/06/22 12:05:22;;;;;;;3.15;2.17;;;26.10;99.90;;;;;;6189478;23;20329;-86
2023/06/22 12:07:48;;;;;;;3.85;1.10;;;25.80;99.90;;;;;;6188643;23;20455;-88
2023/06/22 12:10:14;;;;;;;4.05;1.38;;;26.10;99.90;;;;;;6189983;23;20061;-91
2023/06/22 12:12:43;;;;;;;2.30;1.60;;;26.10;99.90;;;;;;6190719;23;20443;-90
2023/06/22 12:15:12;;;;;;;2.42;1.23;;;25.90;99.90;;;;;;6220433;23;20033;-90
2023/06/22 12:17:37;;;;;;;3.25;1.20;;;26.30;99.90;;;;;;6196650;23;20052;-91
2023/06/22 12:20:05;;;;;;;1.95;1.50;;;26.50;99.90;;;;;;6228765;23;20339;-87
2023/06/22 12:22:34;;;;;;;1.85;1.05;;;26.50;99.90;;;;;;6197623;23;20017;-88
2023/06/22 12:25:01;;;;;;;2.22;1.10;;;26.80;99.60;;;;;;6196929;23;20020;-88
2023/06/22 12:27:27;;;;;;;3.67;1.92;;;26.60;99.60;;;;;;6174487;23;20352;-89
2023/06/22 12:29:59;;;;;;;3.55;1.48;;;26.10;99.70;;;;;;6196045;23;20027;-89
2023/06/22 12:32:25;;;;;;;2.17;1.20;;;25.90;99.90;;;;;;6220822;23;20024;-88
2023/06/22 12:34:51;;;;;;;1.70;1.00;;;25.70;99.90;;;;;;6218308;23;20122;-88
2023/06/22 12:37:17;;;;;;;2.22;1.30;;;25.50;99.90;;;;;;6218576;23;20364;-89
2023/06/22 12:42:42;;;;;;;2.15;1.25;;;25.30;99.90;;;;;;6191365;23;20020;-91
2023/06/22 12:45:21;;;;;;;;;;;;;;;;;;;;;
2023/06/22 12:48:10;;;;;;;3.40;1.45;;;25.20;99.90;;;;;;6184417;23;20347;-90